RV Helmer Hanssen — LAHV — position and weather

sailwx.info

Track history (hours):
 
Tides and Currents Weather Stations Pressure Air Temp Water Temp Dewpoint Dewpoint Depression Visibility Wind Speed Wind Dir Waves Ship Positions

Oceanographic research ship RV Helmer Hanssen (Norway)

ex Jan Mayen.

Ship's website: http://uit.no/bfe

Detailed information on ship capabilities available from University of Delaware's Ocean Information Center and ARCUS's ALIAS (Arctic Logistics Information and Support) project.

Last reported at 2020-Oct-01 11:30 UTC. Time now 2020-Oct-01 13:00 UTC.
Position N 69°30' E 018°12'.

Length 64 m; beam 13 m.

Type: Other ship. MMSI: 257471500.

Date/timePositionNaut miles runAvg speedWind from/ knotsBaromVisibWave heightAir tempDewpointWater temp
2020-Oct-01 11:30N 69°30' E 018°12'8 5.0
2020-Oct-01 09:56N 69°24' E 018°28'5 2.6
2020-Oct-01 08:00N 69°28' E 018°22'13 5.2
2020-Oct-01 05:30N 69°36' E 017°52'23 3.3
2020-Sep-30 22:29N 69°39' E 018°58'0 0.0
2020-Sep-30 21:31N 69°39' E 018°58'0 0.0
2020-Sep-30 15:01N 69°39' E 018°58'0 0.0
2020-Sep-30 12:54N 69°39' E 018°58'18 6.3
2020-Sep-30 10:00N 69°21' E 019°08'18 4.5
2020-Sep-30 05:58N 69°39' E 018°58'0 0.0
2020-Sep-30 05:29N 69°39' E 018°58'0 0.0
2020-Sep-30 04:53N 69°39' E 018°58'0 0.0
2020-Sep-30 02:55N 69°39' E 018°58'0 0.0
2020-Sep-30 02:29N 69°39' E 018°58'0 0.0
2020-Sep-29 23:31N 69°39' E 018°58'0 0.0
2020-Sep-29 15:49N 69°39' E 018°58'0 0.0
2020-Sep-29 14:30N 69°39' E 018°58'0 0.0
2020-Sep-29 13:58N 69°39' E 018°58'0 0.0
2020-Sep-29 13:00N 69°39' E 018°58'0 0.0
2020-Sep-29 11:25N 69°39' E 018°58'0 0.0
2020-Sep-29 09:59N 69°39' E 018°58'0 0.0
2020-Sep-29 06:48N 69°39' E 018°58'0 0.0
2020-Sep-29 04:55N 69°39' E 018°58'0 0.0
2020-Sep-29 04:29N 69°39' E 018°58'0 0.0
2020-Sep-29 00:28N 69°39' E 018°58'0 0.0
2020-Sep-28 21:53N 69°39' E 018°58'0 0.0
2020-Sep-28 19:57N 69°39' E 018°58'0 0.0
2020-Sep-28 19:23N 69°39' E 018°58'0 0.0
2020-Sep-28 18:19N 69°39' E 018°58'0 0.0
2020-Sep-28 17:30N 69°39' E 018°58'0 0.0
2020-Sep-28 16:57N 69°39' E 018°58'0 0.0
2020-Sep-28 15:55N 69°39' E 018°58'0 0.0
2020-Sep-28 14:00N 69°39' E 018°58'0 0.0
2020-Sep-28 11:59N 69°39' E 018°58'0 0.0
2020-Sep-28 11:30N 69°39' E 018°58'0 0.0
2020-Sep-28 10:47N 69°39' E 018°58'0 0.0
2020-Sep-28 10:25N 69°39' E 018°58'0 0.0
2020-Sep-28 08:16N 69°39' E 018°58'0 0.0
2020-Sep-28 07:27N 69°39' E 018°58'0 0.0
2020-Sep-28 02:52N 69°39' E 018°58'0 0.0
2020-Sep-28 01:27N 69°39' E 018°58'0 0.0
2020-Sep-28 00:54N 69°39' E 018°58'0 0.0
2020-Sep-27 21:54N 69°39' E 018°58'0 0.0
2020-Sep-27 20:00N 69°39' E 018°58'0 0.0
2020-Sep-27 18:57N 69°39' E 018°58'0 0.0
2020-Sep-27 17:00N 69°39' E 018°58'0 0.0
2020-Sep-27 13:59N 69°39' E 018°58'0 0.0
2020-Sep-27 12:38N 69°39' E 018°58'0 0.0
2020-Sep-27 10:00N 69°39' E 018°58'0 0.0
2020-Sep-27 07:31N 69°39' E 018°58'0 0.0
2020-Sep-27 02:59N 69°39' E 018°58'0 0.0
2020-Sep-26 22:57N 69°39' E 018°58'0 0.0
2020-Sep-26 22:00N 69°39' E 018°58'6 2.0
2020-Sep-26 18:59N 69°34' E 018°49'12 2.9
2020-Sep-26 14:58N 69°27' E 018°24'7 1.9
2020-Sep-26 11:00N 69°21' E 018°37'2 1.5
2020-Sep-26 09:29N 69°20' E 018°42'6 4.2
2020-Sep-26 07:59N 69°24' E 018°28'6 9.9
2020-Sep-26 07:23N 69°30' E 018°24'10 9.2
2020-Sep-26 06:18N 69°34' E 018°49'6 6.0
2020-Sep-26 05:17N 69°39' E 018°58'0 0.0
2020-Sep-26 00:24N 69°39' E 018°58'0 0.0
2020-Sep-25 23:29N 69°39' E 018°58'0 0.0
2020-Sep-25 20:26N 69°39' E 018°58'0 0.0
2020-Sep-25 19:26N 69°39' E 018°58'18 3.6
2020-Sep-25 14:28N 69°26' E 018°23'1 2.6
2020-Sep-25 13:59N 69°25' E 018°25'1 2.4
2020-Sep-25 13:23N 69°24' E 018°28'7 1.4
2020-Sep-25 08:29N 69°20' E 018°42'11 9.4
2020-Sep-25 07:19N 69°28' E 018°23'410.2
2020-Sep-25 06:58N 69°32' E 018°29'1210.8
2020-Sep-25 05:52N 69°38' E 018°57'1 0.7
2020-Sep-25 03:58N 69°39' E 018°58'0 0.0
2020-Sep-25 00:22N 69°39' E 018°58'15 2.0
2020-Sep-24 16:53N 69°30' E 018°24'1 1.3
2020-Sep-24 16:00N 69°29' E 018°22'2 2.5
2020-Sep-24 15:14N 69°27' E 018°24'4 3.1
2020-Sep-24 14:00N 69°25' E 018°32'4 0.6
2020-Sep-24 07:30N 69°27' E 018°25'8 8.4
2020-Sep-24 06:30N 69°33' E 018°41'9 8.8
2020-Sep-24 05:31N 69°39' E 018°58'0 0.0
2020-Sep-24 03:00N 69°39' E 018°58'0 0.0
2020-Sep-24 02:30N 69°39' E 018°58'0 0.0
2020-Sep-24 02:01N 69°39' E 018°58'0 0.0
2020-Sep-23 21:31N 69°39' E 018°58'0 0.0
2020-Sep-23 20:00N 69°39' E 018°58'0 0.0
2020-Sep-23 19:24N 69°39' E 018°58'0 0.0
2020-Sep-23 19:23N 69°39' E 018°58'0 0.0
2020-Sep-23 19:00N 69°39' E 018°58'10 2.5
2020-Sep-23 15:00N 69°29' E 018°56'1 1.3
2020-Sep-23 14:01N 69°30' E 018°58'9 4.3
2020-Sep-23 12:01N 69°22' E 019°06'3 2.9
2020-Sep-23 11:00N 69°22' E 019°14'2 3.3
2020-Sep-23 10:30N 69°22' E 019°10'18 2.1
2020-Sep-23 02:01N 69°39' E 018°58'0 0.0
2020-Sep-22 22:59N 69°39' E 018°58'9 1.4
2020-Sep-22 16:30N 69°31' E 018°57'1 2.5
2020-Sep-22 16:00N 69°30' E 018°58'2 4.0
2020-Sep-22 15:30N 69°28' E 018°55'8 2.3
2020-Sep-22 12:00N 69°22' E 019°11'0 0.2
2020-Sep-22 11:01N 69°22' E 019°11'1 1.5
2020-Sep-22 10:00N 69°21' E 019°15'3 5.5
2020-Sep-22 09:30N 69°20' E 019°22'2 1.4
2020-Sep-22 08:00N 69°21' E 019°17'510.3
2020-Sep-22 07:30N 69°23' E 019°03'510.3
2020-Sep-22 07:00N 69°27' E 018°56'12 6.1
2020-Sep-22 05:00N 69°39' E 018°58'0 0.0
2020-Sep-21 21:08N 69°39' E 018°58'0 0.0
2020-Sep-21 20:30N 69°39' E 018°58'27 9.0
2020-Sep-21 17:30N 69°55' E 020°02'11 7.2
2020-Sep-21 16:00N 69°58' E 020°32'11 5.4
2020-Sep-21 14:01N 69°48' E 020°25'  
Track history (hours):
 
Tides and Currents Weather Stations Pressure Air Temp Water Temp Dewpoint Dewpoint Depression Visibility Wind Speed Wind Dir Waves Ship Positions

Oceanographic research ship RV Helmer Hanssen (Norway)

ex Jan Mayen.

Ship's website: http://uit.no/bfe

Detailed information on ship capabilities available from University of Delaware's Ocean Information Center and ARCUS's ALIAS (Arctic Logistics Information and Support) project.

Last reported at 2020-Oct-01 11:30 UTC. Time now 2020-Oct-01 13:00 UTC.
Position N 69°30' E 018°12'.

Length 64 m; beam 13 m.

Type: Other ship. MMSI: 257471500.

Date/timePositionNaut miles runAvg speedWind from/ knotsBaromVisibWave heightAir tempDewpointWater temp
2020-Oct-01 11:30N 69°30' E 018°12'8 5.0
2020-Oct-01 09:56N 69°24' E 018°28'5 2.6
2020-Oct-01 08:00N 69°28' E 018°22'13 5.2
2020-Oct-01 05:30N 69°36' E 017°52'23 3.3
2020-Sep-30 22:29N 69°39' E 018°58'0 0.0
2020-Sep-30 21:31N 69°39' E 018°58'0 0.0
2020-Sep-30 15:01N 69°39' E 018°58'0 0.0
2020-Sep-30 12:54N 69°39' E 018°58'18 6.3
2020-Sep-30 10:00N 69°21' E 019°08'18 4.5
2020-Sep-30 05:58N 69°39' E 018°58'0 0.0
2020-Sep-30 05:29N 69°39' E 018°58'0 0.0
2020-Sep-30 04:53N 69°39' E 018°58'0 0.0
2020-Sep-30 02:55N 69°39' E 018°58'0 0.0
2020-Sep-30 02:29N 69°39' E 018°58'0 0.0
2020-Sep-29 23:31N 69°39' E 018°58'0 0.0
2020-Sep-29 15:49N 69°39' E 018°58'0 0.0
2020-Sep-29 14:30N 69°39' E 018°58'0 0.0
2020-Sep-29 13:58N 69°39' E 018°58'0 0.0
2020-Sep-29 13:00N 69°39' E 018°58'0 0.0
2020-Sep-29 11:25N 69°39' E 018°58'0 0.0
2020-Sep-29 09:59N 69°39' E 018°58'0 0.0
2020-Sep-29 06:48N 69°39' E 018°58'0 0.0
2020-Sep-29 04:55N 69°39' E 018°58'0 0.0
2020-Sep-29 04:29N 69°39' E 018°58'0 0.0
2020-Sep-29 00:28N 69°39' E 018°58'0 0.0
2020-Sep-28 21:53N 69°39' E 018°58'0 0.0
2020-Sep-28 19:57N 69°39' E 018°58'0 0.0
2020-Sep-28 19:23N 69°39' E 018°58'0 0.0
2020-Sep-28 18:19N 69°39' E 018°58'0 0.0
2020-Sep-28 17:30N 69°39' E 018°58'0 0.0
2020-Sep-28 16:57N 69°39' E 018°58'0 0.0
2020-Sep-28 15:55N 69°39' E 018°58'0 0.0
2020-Sep-28 14:00N 69°39' E 018°58'0 0.0
2020-Sep-28 11:59N 69°39' E 018°58'0 0.0
2020-Sep-28 11:30N 69°39' E 018°58'0 0.0
2020-Sep-28 10:47N 69°39' E 018°58'0 0.0
2020-Sep-28 10:25N 69°39' E 018°58'0 0.0
2020-Sep-28 08:16N 69°39' E 018°58'0 0.0
2020-Sep-28 07:27N 69°39' E 018°58'0 0.0
2020-Sep-28 02:52N 69°39' E 018°58'0 0.0
2020-Sep-28 01:27N 69°39' E 018°58'0 0.0
2020-Sep-28 00:54N 69°39' E 018°58'0 0.0
2020-Sep-27 21:54N 69°39' E 018°58'0 0.0
2020-Sep-27 20:00N 69°39' E 018°58'0 0.0
2020-Sep-27 18:57N 69°39' E 018°58'0 0.0
2020-Sep-27 17:00N 69°39' E 018°58'0 0.0
2020-Sep-27 13:59N 69°39' E 018°58'0 0.0
2020-Sep-27 12:38N 69°39' E 018°58'0 0.0
2020-Sep-27 10:00N 69°39' E 018°58'0 0.0
2020-Sep-27 07:31N 69°39' E 018°58'0 0.0
2020-Sep-27 02:59N 69°39' E 018°58'0 0.0
2020-Sep-26 22:57N 69°39' E 018°58'0 0.0
2020-Sep-26 22:00N 69°39' E 018°58'6 2.0
2020-Sep-26 18:59N 69°34' E 018°49'12 2.9
2020-Sep-26 14:58N 69°27' E 018°24'7 1.9
2020-Sep-26 11:00N 69°21' E 018°37'2 1.5
2020-Sep-26 09:29N 69°20' E 018°42'6 4.2
2020-Sep-26 07:59N 69°24' E 018°28'6 9.9
2020-Sep-26 07:23N 69°30' E 018°24'10 9.2
2020-Sep-26 06:18N 69°34' E 018°49'6 6.0
2020-Sep-26 05:17N 69°39' E 018°58'0 0.0
2020-Sep-26 00:24N 69°39' E 018°58'0 0.0
2020-Sep-25 23:29N 69°39' E 018°58'0 0.0
2020-Sep-25 20:26N 69°39' E 018°58'0 0.0
2020-Sep-25 19:26N 69°39' E 018°58'18 3.6
2020-Sep-25 14:28N 69°26' E 018°23'1 2.6
2020-Sep-25 13:59N 69°25' E 018°25'1 2.4
2020-Sep-25 13:23N 69°24' E 018°28'7 1.4
2020-Sep-25 08:29N 69°20' E 018°42'11 9.4
2020-Sep-25 07:19N 69°28' E 018°23'410.2
2020-Sep-25 06:58N 69°32' E 018°29'1210.8
2020-Sep-25 05:52N 69°38' E 018°57'1 0.7
2020-Sep-25 03:58N 69°39' E 018°58'0 0.0
2020-Sep-25 00:22N 69°39' E 018°58'15 2.0
2020-Sep-24 16:53N 69°30' E 018°24'1 1.3
2020-Sep-24 16:00N 69°29' E 018°22'2 2.5
2020-Sep-24 15:14N 69°27' E 018°24'4 3.1
2020-Sep-24 14:00N 69°25' E 018°32'4 0.6
2020-Sep-24 07:30N 69°27' E 018°25'8 8.4
2020-Sep-24 06:30N 69°33' E 018°41'9 8.8
2020-Sep-24 05:31N 69°39' E 018°58'0 0.0
2020-Sep-24 03:00N 69°39' E 018°58'0 0.0
2020-Sep-24 02:30N 69°39' E 018°58'0 0.0
2020-Sep-24 02:01N 69°39' E 018°58'0 0.0
2020-Sep-23 21:31N 69°39' E 018°58'0 0.0
2020-Sep-23 20:00N 69°39' E 018°58'0 0.0
2020-Sep-23 19:24N 69°39' E 018°58'0 0.0
2020-Sep-23 19:23N 69°39' E 018°58'0 0.0
2020-Sep-23 19:00N 69°39' E 018°58'10 2.5
2020-Sep-23 15:00N 69°29' E 018°56'1 1.3
2020-Sep-23 14:01N 69°30' E 018°58'9 4.3
2020-Sep-23 12:01N 69°22' E 019°06'3 2.9
2020-Sep-23 11:00N 69°22' E 019°14'2 3.3
2020-Sep-23 10:30N 69°22' E 019°10'18 2.1
2020-Sep-23 02:01N 69°39' E 018°58'0 0.0
2020-Sep-22 22:59N 69°39' E 018°58'9 1.4
2020-Sep-22 16:30N 69°31' E 018°57'1 2.5
2020-Sep-22 16:00N 69°30' E 018°58'2 4.0
2020-Sep-22 15:30N 69°28' E 018°55'8 2.3
2020-Sep-22 12:00N 69°22' E 019°11'0 0.2
2020-Sep-22 11:01N 69°22' E 019°11'1 1.5
2020-Sep-22 10:00N 69°21' E 019°15'3 5.5
2020-Sep-22 09:30N 69°20' E 019°22'2 1.4
2020-Sep-22 08:00N 69°21' E 019°17'510.3
2020-Sep-22 07:30N 69°23' E 019°03'510.3
2020-Sep-22 07:00N 69°27' E 018°56'12 6.1
2020-Sep-22 05:00N 69°39' E 018°58'0 0.0
2020-Sep-21 21:08N 69°39' E 018°58'0 0.0
2020-Sep-21 20:30N 69°39' E 018°58'27 9.0
2020-Sep-21 17:30N 69°55' E 020°02'11 7.2
2020-Sep-21 16:00N 69°58' E 020°32'11 5.4
2020-Sep-21 14:01N 69°48' E 020°25'  

Dump ship's entire track history